Airfield :







YOU CAN JOIN US ON...

 
LOGIN :

Register | Disclaimer

   EN    FR    IT 

 









Legend :    VFR   Marginal VFR   IFR   Intensive IFR   Very Intensive IFR
Visi :
Ceiling :
>= 8 km
>= 3000ft
5 to 8 km
1000 to 3000 ft
1500m to 5 km
500 to 1000 ft
800 to 1500m
200 to 500 ft
< 800m
< 200 ft
Symbols :   Thunderstorms  Fog  Heavy snow  Heavy precipitations  Wind > 20 kt






- Airport Elevation : 92 ft
- IATA code : YZX


CYZX - CFB Greenwood

CURRENT METAR :
  • 270000Z 23010G16KT 15SM SCT025 OVC040 21/17 A3020 RMK SC4SC4 SLP227

EXPIRED METARs :
  • 262300Z 25013G18KT 15SM FEW025 BKN035 22/16 A3020 RMK CF2SC5 SLP226
  • 262200Z 24017G24KT 15SM BKN038 22/17 A3018 RMK SC7 SLP220

TAF TAF CYZX
Valid from the 27 at 00:00 until the 28 at 00:00 UTC


262312Z 2700/2724 24012G22KT P6SM BKN030 BKN250
BECMG 2700/2702 23008KT
FM270200 23005KT P6SM OVC020
TEMPO 2702/2704 OVC025
FM270400 23005KT P6SM OVC010
TEMPO 2704/2708 OVC015
FM270800 VRB03KT 4SM -DZ BR OVC008
TEMPO 2708/2712 P6SM NSW SCT008 OVC015
FM271200 26005KT P6SM SCT015 BKN060
TEMPO 2712/2714 BKN015
BECMG 2714/2716 32008KT RMK NXT FCST BY 270600Z
CZQM FIR / North America



MET'MAP, your aeronautical weather chart ! - Copyright ORBIFLY December 2007 - Disclaimer

ORBIFLY MET'MAP TEAM :

Programming & Development : Alexandra Zaïnal
Concept & original design : Baudouin d'Aumeries
Assistance for programming : Marc-Olivier Méhu
Technical & hardware support : Manuel Goepfert

Contact : metmap@orbifly.com




SOURCES & CREDITS :

   NOAA